Time;durP1;ratioP1;P1;durP2;ratioP2;P2;SDS_P1;SDS_P2;PMS_P1;PMS_P2;Temp;Humidity;BMP_temperature;BMP_pressure;BME280_temperature;BME280_humidity;BME280_pressure;Samples;Min_cycle;Max_cycle;Signal;HPM_P1;HPM_P2
2022/10/24 00:00:31;;;;;;;3.75;0.38;;;15.20;99.90;;;;;;5073465;28;20024;-73
2022/10/24 00:02:57;;;;;;;5.30;0.30;;;15.20;99.90;;;;;;5073330;28;20158;-73
2022/10/24 00:05:22;;;;;;;6.00;0.52;;;15.20;99.90;;;;;;5073460;28;20044;-73
2022/10/24 00:07:49;;;;;;;2.95;0.30;;;15.20;99.90;;;;;;5073332;28;20029;-73
2022/10/24 00:10:16;;;;;;;1.42;0.22;;;15.30;99.90;;;;;;5073412;28;20048;-74
2022/10/24 00:12:41;;;;;;;8.02;0.80;;;15.30;99.90;;;;;;5072041;28;20089;-73
2022/10/24 00:15:08;;;;;;;5.93;0.73;;;15.30;99.90;;;;;;5072318;28;20024;-73
2022/10/24 00:17:34;;;;;;;5.45;0.60;;;15.30;99.90;;;;;;5073189;28;20166;-73
2022/10/24 00:19:59;;;;;;;6.82;0.77;;;15.30;99.90;;;;;;5073300;28;20052;-73
2022/10/24 00:22:26;;;;;;;4.90;0.25;;;15.30;99.90;;;;;;5073229;28;20441;-73
2022/10/24 00:24:52;;;;;;;7.68;1.25;;;15.30;99.90;;;;;;5073716;28;20058;-73
2022/10/24 00:27:17;;;;;;;1.52;0.13;;;15.40;99.90;;;;;;5073263;28;20100;-73
2022/10/24 00:29:43;;;;;;;4.85;0.13;;;15.40;99.90;;;;;;5073206;28;20033;-73
2022/10/24 00:32:09;;;;;;;4.85;0.15;;;15.40;99.90;;;;;;5071810;28;20075;-73
2022/10/24 00:34:34;;;;;;;5.80;0.10;;;15.50;99.90;;;;;;5073156;28;20021;-73
2022/10/24 00:37:01;;;;;;;4.72;0.85;;;15.50;99.90;;;;;;5071754;28;20021;-72
2022/10/24 00:39:26;;;;;;;1.33;0.13;;;15.50;99.90;;;;;;5071696;28;20032;-72
2022/10/24 00:41:53;;;;;;;1.95;0.55;;;15.60;99.90;;;;;;5073108;28;20437;-72
2022/10/24 00:44:22;;;;;;;9.68;0.45;;;15.60;99.90;;;;;;5071607;28;20590;-72
2022/10/24 00:46:52;;;;;;;;;;;15.70;99.90;;;;;;5073367;28;20074;-72
2022/10/24 00:49:22;;;;;;;3.40;0.00;;;15.60;99.90;;;;;;5072943;28;20311;-72
2022/10/24 00:51:51;;;;;;;5.25;0.05;;;15.60;99.90;;;;;;5073028;28;20441;-72
2022/10/24 00:54:17;;;;;;;2.67;0.60;;;15.80;99.90;;;;;;5071621;28;20021;-72
2022/10/24 00:57:05;;;;;;;3.80;0.45;;;15.80;99.90;;;;;;5071686;28;20025;-72
2022/10/24 00:59:33;;;;;;;2.97;0.32;;;15.90;99.90;;;;;;5073104;28;20037;-72
2022/10/24 01:01:59;;;;;;;0.38;0.08;;;15.90;99.90;;;;;;5076814;28;20021;-72
2022/10/24 01:04:24;;;;;;;3.28;0.20;;;16.00;99.90;;;;;;5075535;28;20031;-72
2022/10/24 01:07:02;;;;;;;3.80;0.03;;;16.10;99.90;;;;;;5076712;28;20025;-72
2022/10/24 01:09:48;;;;;;;3.13;0.10;;;16.00;99.90;;;;;;5077224;28;20043;-72
2022/10/24 01:12:42;;;;;;;6.57;0.82;;;16.10;99.90;;;;;;5077106;28;20455;-72
2022/10/24 01:15:38;;;;;;;1.17;0.30;;;16.10;99.90;;;;;;5059398;28;20032;-72
2022/10/24 01:18:19;;;;;;;5.93;0.57;;;16.10;99.90;;;;;;5077049;28;20519;-72
2022/10/24 01:21:06;;;;;;;2.83;0.10;;;16.10;99.90;;;;;;5077029;28;20490;-72
2022/10/24 01:23:43;;;;;;;1.58;0.20;;;16.10;99.90;;;;;;5076430;28;20056;-72
2022/10/24 01:26:50;;;;;;;2.25;0.22;;;16.10;99.90;;;;;;5076379;28;20031;-72
2022/10/24 01:29:46;;;;;;;6.22;0.32;;;16.20;99.90;;;;;;5076997;28;20494;-72
2022/10/24 01:32:31;;;;;;;1.67;0.20;;;16.20;99.90;;;;;;5076570;28;20044;-73
2022/10/24 01:35:15;;;;;;;2.50;0.03;;;16.20;99.90;;;;;;5076466;28;20099;-72
2022/10/24 01:37:48;;;;;;;3.85;0.35;;;16.10;99.90;;;;;;5076557;28;20024;-72
2022/10/24 01:40:20;;;;;;;4.97;0.60;;;16.10;99.90;;;;;;5075020;28;20111;-72
2022/10/24 01:42:47;;;;;;;3.83;0.75;;;16.00;99.90;;;;;;5076244;28;20036;-72
2022/10/24 01:45:22;;;;;;;6.63;0.52;;;16.00;99.90;;;;;;5076042;28;20039;-72
2022/10/24 01:47:53;;;;;;;1.75;0.00;;;16.00;99.90;;;;;;5076278;28;20040;-72
2022/10/24 01:50:21;;;;;;;7.07;0.35;;;16.00;99.90;;;;;;5076068;28;20048;-72
2022/10/24 01:52:48;;;;;;;6.20;0.00;;;15.90;99.90;;;;;;5075989;28;20050;-72
2022/10/24 01:55:14;;;;;;;2.60;0.17;;;16.00;99.90;;;;;;5075854;28;20036;-73
2022/10/24 01:57:41;;;;;;;3.28;0.00;;;16.00;99.90;;;;;;5076260;28;20029;-72
2022/10/24 02:00:08;;;;;;;3.80;0.10;;;16.00;99.90;;;;;;5074481;28;20033;-72
2022/10/24 02:02:47;;;;;;;1.15;0.03;;;16.00;99.90;;;;;;5076045;28;20048;-72
2022/10/24 02:05:22;;;;;;;5.32;0.00;;;16.00;99.90;;;;;;5076005;28;20471;-72
2022/10/24 02:07:53;;;;;;;6.13;0.13;;;16.00;99.90;;;;;;5074397;28;20135;-72
2022/10/24 02:10:25;;;;;;;3.33;0.00;;;15.90;99.90;;;;;;5073612;28;20024;-72
2022/10/24 02:12:58;;;;;;;2.40;0.10;;;15.90;99.90;;;;;;5075692;28;20048;-72
2022/10/24 02:15:30;;;;;;;3.65;0.50;;;15.90;99.90;;;;;;5075610;28;20484;-72
2022/10/24 02:17:56;;;;;;;3.20;0.25;;;15.90;99.90;;;;;;5074123;28;20123;-72
2022/10/24 02:20:35;;;;;;;2.85;0.10;;;16.00;99.90;;;;;;5075438;28;20493;-72
2022/10/24 02:23:51;;;;;;;5.32;0.17;;;15.90;99.90;;;;;;5074471;28;20090;-72
2022/10/24 02:26:28;;;;;;;2.58;0.50;;;15.70;99.90;;;;;;4977808;28;20485;-72
2022/10/24 02:28:57;;;;;;;5.97;0.65;;;15.70;99.90;;;;;;5064961;28;20036;-72
2022/10/24 02:31:25;;;;;;;2.88;0.00;;;15.70;99.90;;;;;;5075209;28;20433;-72
2022/10/24 02:33:53;;;;;;;0.40;0.00;;;15.60;99.90;;;;;;5073851;28;20434;-72
2022/10/24 02:36:24;;;;;;;0.38;0.00;;;15.60;99.90;;;;;;5075096;28;20103;-72
2022/10/24 02:38:53;;;;;;;2.22;0.00;;;15.60;99.90;;;;;;5075045;28;20029;-72
2022/10/24 02:41:23;;;;;;;2.95;0.00;;;15.50;99.90;;;;;;5073726;28;20115;-72
2022/10/24 02:43:50;;;;;;;2.55;0.00;;;15.60;99.90;;;;;;5074804;28;20032;-72
2022/10/24 02:46:17;;;;;;;6.22;0.20;;;15.50;99.90;;;;;;5074958;28;20056;-72
2022/10/24 02:48:48;;;;;;;7.40;0.65;;;15.60;99.90;;;;;;5073534;28;20032;-72
2022/10/24 02:51:17;;;;;;;6.63;0.30;;;15.70;99.90;;;;;;5073579;28;20131;-72
2022/10/24 02:53:43;;;;;;;6.07;0.03;;;15.70;99.90;;;;;;5073390;28;20502;-73
2022/10/24 02:56:08;;;;;;;3.42;0.38;;;15.80;99.90;;;;;;5074667;28;20021;-72
2022/10/24 02:58:34;;;;;;;6.70;0.43;;;15.80;99.90;;;;;;5075058;28;20035;-72
2022/10/24 03:01:00;;;;;;;2.45;0.10;;;15.80;99.90;;;;;;5074577;28;20063;-72
2022/10/24 03:03:25;;;;;;;2.80;0.00;;;16.60;99.90;;;;;;5075044;28;20021;-72
2022/10/24 03:05:51;;;;;;;3.60;0.93;;;15.80;99.90;;;;;;5074511;28;20036;-72
2022/10/24 03:08:16;;;;;;;2.13;0.03;;;15.80;99.90;;;;;;5074923;28;20082;-72
2022/10/24 03:10:42;;;;;;;1.50;0.03;;;15.70;99.90;;;;;;5073143;28;20475;-72
2022/10/24 03:13:07;;;;;;;4.03;0.10;;;15.70;99.90;;;;;;5073038;28;20028;-72
2022/10/24 03:15:33;;;;;;;0.38;0.00;;;15.80;99.90;;;;;;5074380;28;20024;-72
2022/10/24 03:17:58;;;;;;;9.15;0.30;;;15.80;99.90;;;;;;5072912;28;20067;-72
2022/10/24 03:20:24;;;;;;;2.05;0.00;;;16.20;99.90;;;;;;5074225;28;20021;-72
2022/10/24 03:22:50;;;;;;;12.65;0.15;;;15.70;99.90;;;;;;5073928;28;20021;-72
2022/10/24 03:25:16;;;;;;;2.60;0.35;;;15.70;99.90;;;;;;5074221;28;20031;-72
2022/10/24 03:27:42;;;;;;;3.38;0.30;;;15.60;99.90;;;;;;5072742;28;20035;-73
2022/10/24 03:30:08;;;;;;;2.95;0.20;;;15.60;99.90;;;;;;5074100;28;20093;-72
2022/10/24 03:32:34;;;;;;;0.77;0.00;;;15.60;99.90;;;;;;5073854;28;20028;-73
2022/10/24 03:35:00;;;;;;;4.57;0.00;;;15.60;99.90;;;;;;5072613;28;20112;-72
2022/10/24 03:37:26;;;;;;;5.75;0.10;;;15.60;99.90;;;;;;5073799;28;20047;-72
2022/10/24 03:39:52;;;;;;;1.80;0.20;;;15.70;99.90;;;;;;5073849;28;20150;-72
2022/10/24 03:42:20;;;;;;;2.80;0.10;;;15.60;99.90;;;;;;5072455;28;20480;-72
2022/10/24 03:44:46;;;;;;;1.58;0.25;;;15.60;99.90;;;;;;5072426;28;20130;-72
2022/10/24 03:47:12;;;;;;;7.53;0.22;;;15.60;99.90;;;;;;5073492;28;20017;-72
2022/10/24 03:49:37;;;;;;;3.22;0.50;;;15.70;99.90;;;;;;5074192;28;20070;-72
2022/10/24 03:52:03;;;;;;;0.88;0.25;;;15.60;99.90;;;;;;5073571;28;20056;-72
2022/10/24 03:54:29;;;;;;;2.83;0.10;;;15.60;99.90;;;;;;5072324;28;20036;-72
2022/10/24 03:56:58;;;;;;;2.17;0.22;;;15.70;99.90;;;;;;5073659;28;20024;-73
2022/10/24 03:59:23;;;;;;;1.00;0.00;;;16.40;99.90;;;;;;5072238;28;20112;-73
2022/10/24 04:01:49;;;;;;;1.95;0.10;;;15.70;99.90;;;;;;5073448;28;20527;-72
2022/10/24 04:04:14;;;;;;;3.47;0.57;;;15.70;99.90;;;;;;5073398;28;20063;-72
2022/10/24 04:06:41;;;;;;;2.60;0.03;;;15.70;99.90;;;;;;5073398;28;20104;-72
2022/10/24 04:09:07;;;;;;;0.90;0.00;;;15.60;99.90;;;;;;5073440;28;20079;-72
2022/10/24 04:11:32;;;;;;;2.38;0.08;;;15.60;99.90;;;;;;5073348;28;20490;-72
2022/10/24 04:13:59;;;;;;;5.30;0.35;;;15.60;99.90;;;;;;5073216;28;20035;-73
2022/10/24 04:16:25;;;;;;;0.93;0.05;;;15.50;99.90;;;;;;5072020;28;20025;-72
2022/10/24 04:18:51;;;;;;;6.35;0.40;;;15.50;99.90;;;;;;5073740;28;20470;-73
2022/10/24 04:21:17;;;;;;;5.78;0.30;;;15.50;99.90;;;;;;5073343;28;20021;-73
2022/10/24 04:23:43;;;;;;;0.98;0.00;;;15.50;99.90;;;;;;5073262;28;20027;-73
2022/10/24 04:26:14;;;;;;;2.65;0.40;;;15.60;99.90;;;;;;5073214;28;20039;-72
2022/10/24 04:28:39;;;;;;;6.57;0.65;;;15.50;99.90;;;;;;5071939;28;20020;-72
2022/10/24 04:31:05;;;;;;;5.60;0.00;;;15.50;99.90;;;;;;5073123;28;20094;-72
2022/10/24 04:33:31;;;;;;;2.72;0.00;;;15.60;99.90;;;;;;5072534;28;20025;-72
2022/10/24 04:35:57;;;;;;;4.13;0.10;;;15.60;99.90;;;;;;5073111;28;20032;-73
2022/10/24 04:38:22;;;;;;;0.30;0.00;;;15.70;99.90;;;;;;5073017;28;20020;-72
2022/10/24 04:40:51;;;;;;;6.30;0.00;;;16.20;99.90;;;;;;5073020;28;20024;-72
2022/10/24 04:43:18;;;;;;;4.70;0.10;;;15.80;99.90;;;;;;5072920;28;20025;-73
2022/10/24 04:45:43;;;;;;;3.10;0.05;;;15.90;99.90;;;;;;5071644;28;20032;-72
2022/10/24 04:48:09;;;;;;;2.03;0.10;;;15.90;99.90;;;;;;5071620;28;20395;-73
2022/10/24 04:50:35;;;;;;;3.30;0.00;;;15.90;99.90;;;;;;5071800;28;20025;-73
2022/10/24 04:53:01;;;;;;;0.38;0.00;;;15.90;99.90;;;;;;5071902;28;20075;-73
2022/10/24 04:55:27;;;;;;;2.65;0.00;;;15.90;99.90;;;;;;5072953;28;20153;-73
2022/10/24 04:57:52;;;;;;;2.20;0.32;;;16.00;99.90;;;;;;5072800;28;20055;-73
2022/10/24 05:00:18;;;;;;;4.45;0.35;;;16.00;99.90;;;;;;5072846;28;20479;-73
2022/10/24 05:02:44;;;;;;;2.17;0.28;;;16.00;99.90;;;;;;5073144;28;20032;-72
2022/10/24 05:05:09;;;;;;;6.60;0.10;;;16.00;99.90;;;;;;5072806;28;20036;-73
2022/10/24 05:07:35;;;;;;;3.40;0.00;;;15.90;99.90;;;;;;5071628;28;20016;-72
2022/10/24 05:10:02;;;;;;;2.38;0.20;;;16.10;99.90;;;;;;5072818;28;20044;-72
2022/10/24 05:12:27;;;;;;;2.47;0.00;;;16.00;99.90;;;;;;5072689;28;20024;-72
2022/10/24 05:14:53;;;;;;;1.58;0.10;;;16.00;99.90;;;;;;5072751;28;20541;-72
2022/10/24 05:17:18;;;;;;;3.75;0.10;;;16.00;99.90;;;;;;5071746;28;20059;-72
2022/10/24 05:19:44;;;;;;;1.35;0.10;;;16.00;99.90;;;;;;5072706;28;20033;-73
2022/10/24 05:22:10;;;;;;;6.28;0.80;;;16.00;99.90;;;;;;5071332;28;20025;-73
2022/10/24 05:24:35;;;;;;;3.20;0.10;;;16.00;99.90;;;;;;5072648;28;20021;-72
2022/10/24 05:27:01;;;;;;;4.03;0.30;;;16.10;99.90;;;;;;5072632;28;20020;-72
2022/10/24 05:29:26;;;;;;;3.63;0.10;;;16.00;99.90;;;;;;5073040;28;20037;-72
2022/10/24 05:31:52;;;;;;;5.47;0.00;;;16.00;99.90;;;;;;5072096;28;20468;-73
2022/10/24 05:34:17;;;;;;;0.52;0.03;;;16.00;99.90;;;;;;5071139;28;20386;-73
2022/10/24 05:36:43;;;;;;;5.32;0.00;;;16.00;99.90;;;;;;5071214;28;20021;-73
2022/10/24 05:39:08;;;;;;;3.55;0.10;;;16.00;99.90;;;;;;5072850;28;20031;-72
2022/10/24 05:41:34;;;;;;;3.88;0.45;;;16.00;99.90;;;;;;5072404;28;20025;-73
2022/10/24 05:43:59;;;;;;;3.00;0.00;;;16.10;99.90;;;;;;5071113;28;20112;-73
2022/10/24 05:46:25;;;;;;;3.60;0.52;;;16.10;99.90;;;;;;5073663;28;20025;-72
2022/10/24 05:48:51;;;;;;;4.57;0.40;;;16.10;99.90;;;;;;5074573;28;20028;-72
2022/10/24 05:51:16;;;;;;;5.25;0.17;;;16.10;99.90;;;;;;5075774;28;20047;-72
2022/10/24 05:53:42;;;;;;;9.32;0.52;;;16.10;99.90;;;;;;5075739;28;20020;-72
2022/10/24 05:56:08;;;;;;;4.90;0.03;;;16.00;99.90;;;;;;5076301;28;20032;-72
2022/10/24 05:58:33;;;;;;;4.85;0.20;;;16.00;99.90;;;;;;5075666;28;20025;-72
2022/10/24 06:01:00;;;;;;;5.47;0.10;;;16.00;99.90;;;;;;5074404;28;20024;-72
2022/10/24 06:03:25;;;;;;;4.85;0.10;;;16.00;99.90;;;;;;5074259;28;20017;-72
2022/10/24 06:05:51;;;;;;;4.57;0.35;;;16.00;99.90;;;;;;5075553;28;20078;-73
2022/10/24 06:08:17;;;;;;;5.00;0.32;;;16.60;99.90;;;;;;5075388;28;20025;-73
2022/10/24 06:10:47;;;;;;;6.88;0.30;;;16.00;99.90;;;;;;5074234;28;20035;-72
2022/10/24 06:13:14;;;;;;;49.67;0.85;;;16.00;99.90;;;;;;5075472;28;20036;-73
2022/10/24 06:15:43;;;;;;;2.45;0.17;;;16.00;99.90;;;;;;5075486;28;20379;-72
2022/10/24 06:18:09;;;;;;;3.00;0.52;;;16.00;99.90;;;;;;5075328;28;20060;-72
2022/10/24 06:20:35;;;;;;;5.25;0.00;;;16.10;99.90;;;;;;5074073;28;20055;-73
2022/10/24 06:23:01;;;;;;;1.40;0.00;;;16.10;99.90;;;;;;5073964;28;20495;-72
2022/10/24 06:25:26;;;;;;;6.50;0.45;;;16.00;99.90;;;;;;5073885;28;20017;-72
2022/10/24 06:27:52;;;;;;;1.63;0.00;;;16.10;99.90;;;;;;5075219;28;20020;-73
2022/10/24 06:30:17;;;;;;;6.07;0.73;;;16.10;99.90;;;;;;5075706;28;20024;-72
2022/10/24 06:32:43;;;;;;;8.77;0.65;;;16.10;99.90;;;;;;5075081;28;20103;-72
2022/10/24 06:35:12;;;;;;;3.17;0.03;;;16.10;99.90;;;;;;5075061;28;20021;-72
2022/10/24 06:37:38;;;;;;;8.07;0.10;;;16.00;99.90;;;;;;5074966;28;20036;-73
2022/10/24 06:40:04;;;;;;;5.72;0.95;;;16.00;99.90;;;;;;5075044;28;20059;-72
2022/10/24 06:42:29;;;;;;;1.73;0.15;;;16.00;99.90;;;;;;5074772;28;20023;-72
2022/10/24 06:44:55;;;;;;;4.30;0.03;;;15.90;99.90;;;;;;5075402;28;20021;-72
2022/10/24 06:47:20;;;;;;;6.72;0.52;;;16.00;99.90;;;;;;5075189;28;20063;-72
2022/10/24 06:49:46;;;;;;;5.75;0.20;;;16.00;99.90;;;;;;5073429;28;20028;-72
2022/10/24 06:52:11;;;;;;;2.22;0.00;;;15.90;99.90;;;;;;5073230;28;20028;-73
2022/10/24 06:54:38;;;;;;;4.07;0.30;;;16.00;99.90;;;;;;5074613;28;20024;-72
2022/10/24 06:57:03;;;;;;;5.40;0.35;;;16.00;99.90;;;;;;5074153;28;20037;-72
2022/10/24 06:59:29;;;;;;;12.57;0.55;;;16.10;99.90;;;;;;5074494;28;20024;-72
2022/10/24 07:01:55;;;;;;;3.25;0.13;;;16.20;99.90;;;;;;5074927;28;20039;-72
2022/10/24 07:04:20;;;;;;;6.72;0.30;;;16.30;99.90;;;;;;5072971;28;20016;-72
2022/10/24 07:06:46;;;;;;;12.00;0.65;;;16.30;99.90;;;;;;5074371;28;20479;-72
2022/10/24 07:09:12;;;;;;;2.22;0.10;;;16.40;99.90;;;;;;5074387;28;20025;-72
2022/10/24 07:11:37;;;;;;;4.55;0.38;;;16.40;99.90;;;;;;5073104;28;20111;-72
2022/10/24 07:14:04;;;;;;;2.13;0.03;;;16.40;99.90;;;;;;5074254;28;20023;-72
2022/10/24 07:16:30;;;;;;;1.48;0.40;;;16.50;99.90;;;;;;5074861;28;20024;-72
2022/10/24 07:18:55;;;;;;;3.42;0.00;;;16.50;99.90;;;;;;5074124;28;20028;-73
2022/10/24 07:21:28;;;;;;;4.25;0.35;;;16.40;99.90;;;;;;5074094;28;20021;-73
2022/10/24 07:23:55;;;;;;;2.90;0.03;;;15.60;99.90;;;;;;5074144;28;20017;-73
2022/10/24 07:26:22;;;;;;;2.72;0.20;;;16.40;99.90;;;;;;5072814;28;20070;-73
2022/10/24 07:28:52;;;;;;;1.38;0.32;;;16.40;99.90;;;;;;5074098;28;20025;-74
2022/10/24 07:31:19;;;;;;;5.22;0.17;;;16.50;99.90;;;;;;5074125;28;20445;-74
2022/10/24 07:33:44;;;;;;;2.92;0.05;;;17.00;99.90;;;;;;5072869;28;20020;-74
2022/10/24 07:36:15;;;;;;;5.93;0.20;;;16.50;99.90;;;;;;5072609;28;20031;-73
2022/10/24 07:38:41;;;;;;;4.22;0.05;;;16.40;99.90;;;;;;5072628;28;20016;-73
2022/10/24 07:41:06;;;;;;;1.75;0.00;;;16.40;99.90;;;;;;5072499;28;20035;-73
2022/10/24 07:43:32;;;;;;;4.07;0.00;;;16.40;99.90;;;;;;5072409;28;20024;-73
2022/10/24 07:45:57;;;;;;;3.47;0.28;;;16.40;99.90;;;;;;5073676;28;20075;-73
2022/10/24 07:48:23;;;;;;;2.20;0.45;;;16.40;99.90;;;;;;5096061;22;20396;-88
2022/10/24 07:50:49;;;;;;;5.18;0.17;;;16.40;99.90;;;;;;5057251;28;20044;-88
2022/10/24 07:53:19;;;;;;;6.07;0.05;;;18.80;99.90;;;;;;5073141;28;20358;-89
2022/10/24 07:55:45;;;;;;;5.18;0.32;;;16.40;99.90;;;;;;5074475;28;20024;-88
2022/10/24 07:58:12;;;;;;;3.22;0.45;;;16.30;99.90;;;;;;5074196;28;20074;-89
2022/10/24 08:00:41;;;;;;;6.85;0.57;;;16.30;99.90;;;;;;5073930;28;20108;-88
2022/10/24 08:03:06;;;;;;;6.57;0.57;;;16.30;99.90;;;;;;5074818;28;20059;-86
2022/10/24 08:05:32;;;;;;;4.93;0.00;;;16.70;99.90;;;;;;5073947;28;20028;-87
2022/10/24 08:08:10;;;;;;;2.47;0.10;;;16.40;99.90;;;;;;5073561;28;20024;-88
2022/10/24 08:10:36;;;;;;;3.05;0.60;;;;;;;;;;5040990;28;20036;-87
2022/10/24 08:13:02;;;;;;;5.75;0.73;;;16.40;99.90;;;;;;5075837;28;20484;-89
2022/10/24 08:15:28;;;;;;;2.10;0.10;;;;;;;;;;5075519;28;20033;-90
2022/10/24 08:17:55;;;;;;;1.13;0.00;;;;;;;;;;5073757;28;20032;-87
2022/10/24 08:20:22;;;;;;;1.98;0.10;;;;;;;;;;5074009;28;20021;-89
2022/10/24 08:22:48;;;;;;;2.50;0.20;;;16.40;99.90;;;;;;5073269;28;20130;-89
2022/10/24 08:25:14;;;;;;;3.25;0.00;;;16.40;99.90;;;;;;5073766;28;20052;-89
2022/10/24 08:27:41;;;;;;;2.70;0.00;;;16.40;99.90;;;;;;5073396;28;20458;-87
2022/10/24 08:30:07;;;;;;;3.20;0.65;;;16.90;99.90;;;;;;5073242;28;20046;-89
2022/10/24 08:32:34;;;;;;;8.40;0.25;;;16.40;99.90;;;;;;5073360;28;20031;-88
2022/10/24 08:35:00;;;;;;;4.05;0.43;;;16.30;99.90;;;;;;5073364;28;20389;-88
2022/10/24 08:37:26;;;;;;;4.22;0.10;;;16.20;99.90;;;;;;5073184;28;20024;-87
2022/10/24 08:39:55;;;;;;;3.25;0.28;;;16.30;99.90;;;;;;5073708;28;20100;-89
2022/10/24 08:42:23;;;;;;;4.85;0.10;;;15.90;99.90;;;;;;5057402;28;20037;-89
2022/10/24 08:44:50;;;;;;;2.27;0.67;;;;;;;;;;5073825;28;20021;-90
2022/10/24 08:47:33;;;;;;;4.80;0.20;;;15.90;99.90;;;;;;5073730;28;20017;-90
2022/10/24 08:50:08;;;;;;;2.95;0.40;;;15.90;99.90;;;;;;5073548;28;20082;-89
2022/10/24 08:52:55;;;;;;;2.88;0.15;;;16.40;99.90;;;;;;5073359;28;20104;-91
2022/10/24 08:55:24;;;;;;;3.15;0.00;;;15.60;99.90;;;;;;5073812;28;20021;-90
2022/10/24 08:57:53;;;;;;;3.40;0.20;;;15.60;99.90;;;;;;5073223;28;20100;-90
2022/10/24 09:00:30;;;;;;;5.95;0.10;;;16.90;99.90;;;;;;5072678;28;20024;-91
2022/10/24 09:03:33;;;;;;;1.55;0.20;;;15.50;99.90;;;;;;5073207;28;20025;-89
2022/10/24 09:06:05;;;;;;;1.48;0.00;;;15.50;99.90;;;;;;5073102;28;20024;-88
2022/10/24 09:08:48;;;;;;;1.55;0.00;;;15.60;99.90;;;;;;5074037;28;20055;-89
2022/10/24 09:11:36;;;;;;;4.38;0.45;;;15.70;99.90;;;;;;5073964;28;20028;-89
2022/10/24 09:14:11;;;;;;;2.78;0.00;;;15.90;99.90;;;;;;5076048;28;20060;-89
2022/10/24 09:16:39;;;;;;;3.17;0.45;;;16.00;99.90;;;;;;5074534;28;20025;-90
2022/10/24 09:19:07;;;;;;;3.20;0.03;;;16.90;99.90;;;;;;5074130;28;20025;-89
2022/10/24 09:21:33;;;;;;;4.47;0.08;;;;;;;;;;5078260;28;20115;-89
2022/10/24 09:24:00;;;;;;;3.15;0.20;;;16.30;99.90;;;;;;5076721;28;20025;-87
2022/10/24 09:26:30;;;;;;;1.35;0.05;;;16.90;99.90;;;;;;5077137;28;20017;-88
2022/10/24 09:28:56;;;;;;;1.95;0.00;;;16.60;99.90;;;;;;5081701;28;20059;-88
2022/10/24 09:31:26;;;;;;;1.25;0.00;;;16.70;99.90;;;;;;5077927;28;20029;-89
2022/10/24 09:33:52;;;;;;;3.35;0.03;;;16.30;99.90;;;;;;5078216;28;20020;-86
2022/10/24 09:36:20;;;;;;;9.52;0.85;;;16.40;99.90;;;;;;5077650;28;20111;-88
2022/10/24 09:38:48;;;;;;;2.27;0.00;;;18.40;99.90;;;;;;5077156;28;20028;-88
2022/10/24 09:41:26;;;;;;;7.13;0.20;;;16.30;99.90;;;;;;5077250;28;20468;-89
2022/10/24 09:44:03;;;;;;;5.53;0.50;;;16.40;99.90;;;;;;5077596;28;20092;-88
2022/10/24 09:46:40;;;;;;;4.40;0.20;;;16.50;99.90;;;;;;5077204;28;20020;-87
2022/10/24 09:49:06;;;;;;;3.45;0.17;;;;;;;;;;5077979;28;20032;-88
2022/10/24 09:51:41;;;;;;;3.95;0.00;;;16.50;99.90;;;;;;5076728;28;20091;-88
2022/10/24 09:54:20;;;;;;;5.35;0.38;;;16.30;99.90;;;;;;5076897;28;20082;-87
2022/10/24 09:57:06;;;;;;;10.13;1.42;;;17.00;99.90;;;;;;5076134;28;20048;-88
2022/10/24 09:59:48;;;;;;;7.25;0.22;;;16.50;99.90;;;;;;5077481;28;20032;-90
2022/10/24 10:02:23;;;;;;;1.73;0.00;;;16.30;99.90;;;;;;5076526;28;20016;-87
2022/10/24 10:05:04;;;;;;;3.08;0.00;;;16.30;99.90;;;;;;5076076;28;20408;-88
2022/10/24 10:07:41;;;;;;;4.50;0.00;;;16.50;99.90;;;;;;5076570;28;20088;-88
2022/10/24 10:10:08;;;;;;;7.75;0.45;;;16.50;99.90;;;;;;5076165;28;20107;-89
2022/10/24 10:12:39;;;;;;;2.42;0.00;;;16.60;99.90;;;;;;5075787;28;20035;-88
2022/10/24 10:15:25;;;;;;;2.28;0.30;;;18.50;99.90;;;;;;5075833;28;20157;-88
2022/10/24 10:17:55;;;;;;;3.08;0.20;;;16.50;99.90;;;;;;5075546;28;20029;-89
2022/10/24 10:20:32;;;;;;;3.50;0.00;;;16.60;99.90;;;;;;5075379;28;20466;-88
2022/10/24 10:23:25;;;;;;;4.93;0.52;;;16.50;99.90;;;;;;5076715;28;20082;-90
2022/10/24 10:26:14;;;;;;;2.88;0.10;;;16.80;99.90;;;;;;5075552;28;20020;-90
2022/10/24 10:28:52;;;;;;;2.97;0.00;;;16.80;99.90;;;;;;5075355;28;20025;-88
2022/10/24 10:31:23;;;;;;;2.33;0.00;;;16.60;99.90;;;;;;5074911;28;20055;-89
2022/10/24 10:34:15;;;;;;;7.80;0.05;;;17.50;99.90;;;;;;5075081;28;20043;-89
2022/10/24 10:37:24;;;;;;;3.65;0.00;;;16.60;99.90;;;;;;5075545;28;20035;-88
2022/10/24 10:40:01;;;;;;;3.88;0.00;;;16.60;99.90;;;;;;5076696;28;20028;-89
2022/10/24 10:42:45;;;;;;;0.65;0.00;;;16.60;99.90;;;;;;5075549;28;20481;-87
2022/10/24 10:45:25;;;;;;;3.08;0.10;;;16.70;99.90;;;;;;5075543;28;20378;-87
2022/10/24 10:48:12;;;;;;;4.13;0.10;;;16.80;99.90;;;;;;5074917;28;20044;-88
2022/10/24 10:50:58;;;;;;;7.25;0.15;;;16.90;99.90;;;;;;5075212;28;20028;-88
2022/10/24 10:53:50;;;;;;;2.17;0.15;;;17.20;99.90;;;;;;5074711;28;20017;-89
2022/10/24 10:56:24;;;;;;;3.92;1.15;;;17.10;99.90;;;;;;5070497;28;20062;-87
2022/10/24 10:59:08;;;;;;;1.80;0.10;;;17.00;99.90;;;;;;5075236;28;20036;-88
2022/10/24 11:02:01;;;;;;;3.08;0.00;;;16.90;99.90;;;;;;5074769;28;20469;-90
2022/10/24 11:04:51;;;;;;;2.42;0.10;;;16.80;99.90;;;;;;5075178;28;20016;-88
2022/10/24 11:07:44;;;;;;;4.72;0.00;;;16.80;99.90;;;;;;5074937;28;20067;-89
2022/10/24 11:10:16;;;;;;;2.47;0.55;;;16.80;99.90;;;;;;5075706;28;20016;-89
2022/10/24 11:12:44;;;;;;;1.83;0.05;;;16.80;99.90;;;;;;5075506;28;20063;-88
2022/10/24 11:15:25;;;;;;;5.90;0.75;;;16.60;99.90;;;;;;5075113;28;20020;-89
2022/10/24 11:17:54;;;;;;;2.13;0.28;;;16.60;99.90;;;;;;5074873;28;20055;-91
2022/10/24 11:20:37;;;;;;;0.95;0.00;;;16.40;99.90;;;;;;5074721;28;20048;-89
2022/10/24 11:23:14;;;;;;;2.22;0.57;;;16.40;99.90;;;;;;5074881;28;20027;-90
2022/10/24 11:25:51;;;;;;;9.02;0.57;;;16.10;99.90;;;;;;5074843;28;20024;-86
2022/10/24 11:28:28;;;;;;;1.63;0.00;;;16.10;99.90;;;;;;5074899;28;20024;-89
2022/10/24 11:31:09;;;;;;;2.00;0.10;;;16.10;99.90;;;;;;5074975;28;20021;-89
2022/10/24 11:33:59;;;;;;;2.35;0.38;;;15.90;99.90;;;;;;5074269;28;20028;-90
2022/10/24 11:36:42;;;;;;;3.83;0.00;;;15.90;99.90;;;;;;5075244;28;20457;-87
2022/10/24 11:39:15;;;;;;;2.70;0.20;;;15.50;99.90;;;;;;5074509;28;20029;-88
2022/10/24 11:41:49;;;;;;;0.68;0.00;;;15.60;99.90;;;;;;5074784;28;20393;-88
2022/10/24 11:44:33;;;;;;;6.55;0.68;;;15.70;99.90;;;;;;5076678;28;20436;-89
2022/10/24 11:47:25;;;;;;;2.00;0.32;;;15.70;99.90;;;;;;5078310;28;20048;-89
2022/10/24 11:50:20;;;;;;;4.45;0.00;;;15.90;99.90;;;;;;5061901;28;20036;-89
2022/10/24 11:52:49;;;;;;;30.88;1.30;;;16.00;99.90;;;;;;5074341;28;20074;-90
2022/10/24 11:55:18;;;;;;;0.60;0.00;;;16.70;99.90;;;;;;5074241;28;20075;-89
2022/10/24 11:57:53;;;;;;;2.67;0.30;;;16.10;99.90;;;;;;5074235;28;20017;-89
2022/10/24 12:00:35;;;;;;;0.95;0.13;;;18.10;99.90;;;;;;5073825;28;20021;-89
2022/10/24 12:03:34;;;;;;;1.55;0.15;;;16.10;99.90;;;;;;5074041;28;20028;-89
2022/10/24 12:06:19;;;;;;;8.02;0.10;;;16.10;99.90;;;;;;5073794;28;20020;-88
2022/10/24 12:09:06;;;;;;;4.18;0.25;;;16.40;99.90;;;;;;5073554;28;20032;-88
2022/10/24 12:11:35;;;;;;;1.25;0.10;;;16.30;99.90;;;;;;5073824;28;20029;-88
2022/10/24 12:14:20;;;;;;;5.75;0.10;;;18.60;99.90;;;;;;5073484;28;20020;-89
2022/10/24 12:16:54;;;;;;;1.85;0.17;;;16.40;99.90;;;;;;5073950;28;20121;-87
2022/10/24 12:19:21;;;;;;;0.47;0.00;;;16.40;99.90;;;;;;5073425;28;20028;-88
2022/10/24 12:22:00;;;;;;;0.95;0.00;;;16.40;99.90;;;;;;5073405;28;20028;-89
2022/10/24 12:24:35;;;;;;;2.63;0.05;;;17.10;99.90;;;;;;5073615;28;20024;-88
2022/10/24 12:27:07;;;;;;;3.63;0.00;;;16.40;99.90;;;;;;5073700;28;20021;-89
2022/10/24 12:29:36;;;;;;;6.22;0.00;;;16.50;99.90;;;;;;5074134;28;20028;-89
2022/10/24 12:32:24;;;;;;;1.45;0.00;;;16.40;99.90;;;;;;5073759;28;20029;-88
2022/10/24 12:34:58;;;;;;;1.83;0.10;;;16.80;99.90;;;;;;5075569;28;20038;-88
2022/10/24 12:37:24;;;;;;;3.72;0.28;;;16.70;99.90;;;;;;5074044;28;20099;-88
2022/10/24 12:39:51;;;;;;;3.03;0.25;;;16.90;99.90;;;;;;5074185;28;20484;-88
2022/10/24 12:42:43;;;;;;;5.32;0.00;;;16.80;99.90;;;;;;5074522;28;20051;-90
2022/10/24 12:45:26;;;;;;;4.60;0.28;;;16.80;99.90;;;;;;5073624;28;20025;-89
2022/10/24 12:47:52;;;;;;;0.85;0.00;;;16.60;99.90;;;;;;5073742;28;20041;-88
2022/10/24 12:50:20;;;;;;;2.00;0.00;;;16.50;99.90;;;;;;5075043;28;20027;-90
2022/10/24 12:52:46;;;;;;;5.10;0.20;;;16.40;99.90;;;;;;5073579;28;20024;-88
2022/10/24 12:55:29;;;;;;;2.15;0.00;;;16.30;99.90;;;;;;5074721;28;20021;-88
2022/10/24 12:57:55;;;;;;;4.20;0.13;;;16.10;99.90;;;;;;5077960;28;20056;-88
2022/10/24 13:00:38;;;;;;;1.55;0.00;;;16.00;99.90;;;;;;5077651;28;20020;-93
2022/10/24 13:03:32;;;;;;;1.38;0.00;;;15.60;99.90;;;;;;5077230;28;20366;-90
2022/10/24 13:06:22;;;;;;;3.92;0.22;;;15.30;99.90;;;;;;5079142;28;20088;-89
2022/10/24 13:08:48;;;;;;;4.00;0.00;;;;;;;;;;5078114;28;20032;-90
2022/10/24 13:11:38;;;;;;;5.53;0.68;;;15.10;99.90;;;;;;5077921;28;20070;-90